sensor_id;sensor_type;location;lat;lon;timestamp;temperature;humidity
74294;DHT22;64044;59.904;10.738;2023-06-04T00:00:45;14.80;56.90
74294;DHT22;64044;59.904;10.738;2023-06-04T00:03:11;14.70;56.90
74294;DHT22;64044;59.904;10.738;2023-06-04T00:05:37;14.70;57.00
74294;DHT22;64044;59.904;10.738;2023-06-04T00:08:02;14.60;57.10
74294;DHT22;64044;59.904;10.738;2023-06-04T00:10:28;14.60;57.10
74294;DHT22;64044;59.904;10.738;2023-06-04T00:12:54;14.60;57.20
74294;DHT22;64044;59.904;10.738;2023-06-04T00:15:20;14.50;57.20
74294;DHT22;64044;59.904;10.738;2023-06-04T00:17:45;14.50;57.60
74294;DHT22;64044;59.904;10.738;2023-06-04T00:20:11;14.50;57.90
74294;DHT22;64044;59.904;10.738;2023-06-04T00:22:37;14.40;57.90
74294;DHT22;64044;59.904;10.738;2023-06-04T00:25:03;14.40;58.10
74294;DHT22;64044;59.904;10.738;2023-06-04T00:27:29;14.40;58.30
74294;DHT22;64044;59.904;10.738;2023-06-04T00:29:55;14.30;58.10
74294;DHT22;64044;59.904;10.738;2023-06-04T00:32:21;14.30;58.20
74294;DHT22;64044;59.904;10.738;2023-06-04T00:34:54;14.20;58.30
74294;DHT22;64044;59.904;10.738;2023-06-04T00:37:22;14.30;58.80
74294;DHT22;64044;59.904;10.738;2023-06-04T00:39:48;14.20;58.30
74294;DHT22;64044;59.904;10.738;2023-06-04T00:42:14;14.20;58.10
74294;DHT22;64044;59.904;10.738;2023-06-04T00:44:39;14.10;58.10
74294;DHT22;64044;59.904;10.738;2023-06-04T00:47:14;14.20;58.10
74294;DHT22;64044;59.904;10.738;2023-06-04T00:49:40;14.10;58.00
74294;DHT22;64044;59.904;10.738;2023-06-04T00:52:08;14.10;57.90
74294;DHT22;64044;59.904;10.738;2023-06-04T00:54:34;14.10;58.00
74294;DHT22;64044;59.904;10.738;2023-06-04T00:57:01;14.10;57.90
74294;DHT22;64044;59.904;10.738;2023-06-04T00:59:28;14.00;57.80
74294;DHT22;64044;59.904;10.738;2023-06-04T01:02:09;14.00;57.90
74294;DHT22;64044;59.904;10.738;2023-06-04T01:04:44;14.00;58.30
74294;DHT22;64044;59.904;10.738;2023-06-04T01:07:14;14.00;58.20
74294;DHT22;64044;59.904;10.738;2023-06-04T01:09:41;14.00;58.00
74294;DHT22;64044;59.904;10.738;2023-06-04T01:12:07;14.00;58.70
74294;DHT22;64044;59.904;10.738;2023-06-04T01:14:33;13.90;58.10
74294;DHT22;64044;59.904;10.738;2023-06-04T01:17:01;13.90;58.70
74294;DHT22;64044;59.904;10.738;2023-06-04T01:19:37;13.90;58.30
74294;DHT22;64044;59.904;10.738;2023-06-04T01:22:10;13.90;58.60
74294;DHT22;64044;59.904;10.738;2023-06-04T01:24:42;13.90;58.60
74294;DHT22;64044;59.904;10.738;2023-06-04T01:27:11;13.90;58.50
74294;DHT22;64044;59.904;10.738;2023-06-04T01:29:37;13.90;58.50
74294;DHT22;64044;59.904;10.738;2023-06-04T01:32:04;13.90;58.40
74294;DHT22;64044;59.904;10.738;2023-06-04T01:34:30;13.90;58.30
74294;DHT22;64044;59.904;10.738;2023-06-04T01:36:56;13.80;58.30
74294;DHT22;64044;59.904;10.738;2023-06-04T01:39:21;13.80;58.10
74294;DHT22;64044;59.904;10.738;2023-06-04T01:41:47;13.80;58.20
74294;DHT22;64044;59.904;10.738;2023-06-04T01:44:13;13.80;58.10
74294;DHT22;64044;59.904;10.738;2023-06-04T01:46:38;13.80;57.90
74294;DHT22;64044;59.904;10.738;2023-06-04T01:49:04;13.80;57.70
74294;DHT22;64044;59.904;10.738;2023-06-04T01:51:31;13.80;57.60
74294;DHT22;64044;59.904;10.738;2023-06-04T01:53:57;13.80;57.20
74294;DHT22;64044;59.904;10.738;2023-06-04T01:56:23;13.80;57.00
74294;DHT22;64044;59.904;10.738;2023-06-04T01:58:50;13.80;56.70
74294;DHT22;64044;59.904;10.738;2023-06-04T02:01:17;13.80;56.40
74294;DHT22;64044;59.904;10.738;2023-06-04T02:03:43;13.80;56.20
74294;DHT22;64044;59.904;10.738;2023-06-04T02:06:08;13.80;55.90
74294;DHT22;64044;59.904;10.738;2023-06-04T02:08:34;13.90;55.70
74294;DHT22;64044;59.904;10.738;2023-06-04T02:11:00;13.90;55.50
74294;DHT22;64044;59.904;10.738;2023-06-04T02:13:26;13.90;55.30
74294;DHT22;64044;59.904;10.738;2023-06-04T02:16:17;13.90;55.10
74294;DHT22;64044;59.904;10.738;2023-06-04T02:18:42;13.90;54.80
74294;DHT22;64044;59.904;10.738;2023-06-04T02:21:08;13.90;54.50
74294;DHT22;64044;59.904;10.738;2023-06-04T02:23:34;13.80;54.20
74294;DHT22;64044;59.904;10.738;2023-06-04T02:25:59;13.90;53.90
74294;DHT22;64044;59.904;10.738;2023-06-04T02:28:25;13.90;53.80
74294;DHT22;64044;59.904;10.738;2023-06-04T02:30:51;13.80;53.50
74294;DHT22;64044;59.904;10.738;2023-06-04T02:33:17;13.90;53.30
74294;DHT22;64044;59.904;10.738;2023-06-04T02:35:43;13.80;53.10
74294;DHT22;64044;59.904;10.738;2023-06-04T02:38:08;13.80;53.10
74294;DHT22;64044;59.904;10.738;2023-06-04T02:40:34;13.80;53.00
74294;DHT22;64044;59.904;10.738;2023-06-04T02:43:00;13.90;53.10
74294;DHT22;64044;59.904;10.738;2023-06-04T02:45:26;13.80;54.00
74294;DHT22;64044;59.904;10.738;2023-06-04T02:47:51;13.90;55.80
74294;DHT22;64044;59.904;10.738;2023-06-04T02:50:17;13.90;56.70
74294;DHT22;64044;59.904;10.738;2023-06-04T02:52:43;14.00;57.60
74294;DHT22;64044;59.904;10.738;2023-06-04T02:55:09;14.00;58.00
74294;DHT22;64044;59.904;10.738;2023-06-04T02:57:38;14.00;57.50
74294;DHT22;64044;59.904;10.738;2023-06-04T03:00:05;14.00;56.70
74294;DHT22;64044;59.904;10.738;2023-06-04T03:02:45;14.00;56.30
74294;DHT22;64044;59.904;10.738;2023-06-04T03:05:13;14.10;56.30
74294;DHT22;64044;59.904;10.738;2023-06-04T03:07:41;14.10;55.90
74294;DHT22;64044;59.904;10.738;2023-06-04T03:10:09;14.10;55.30
74294;DHT22;64044;59.904;10.738;2023-06-04T03:12:35;14.10;55.00
74294;DHT22;64044;59.904;10.738;2023-06-04T03:15:01;14.10;54.50
74294;DHT22;64044;59.904;10.738;2023-06-04T03:17:27;14.10;54.00
74294;DHT22;64044;59.904;10.738;2023-06-04T03:19:53;14.10;53.40
74294;DHT22;64044;59.904;10.738;2023-06-04T03:22:21;14.20;52.90
74294;DHT22;64044;59.904;10.738;2023-06-04T03:24:47;14.20;53.10
74294;DHT22;64044;59.904;10.738;2023-06-04T03:27:13;14.20;52.30
74294;DHT22;64044;59.904;10.738;2023-06-04T03:29:39;14.20;52.00
74294;DHT22;64044;59.904;10.738;2023-06-04T03:32:06;14.30;51.90
74294;DHT22;64044;59.904;10.738;2023-06-04T03:34:31;14.30;51.60
74294;DHT22;64044;59.904;10.738;2023-06-04T03:36:58;14.30;51.20
74294;DHT22;64044;59.904;10.738;2023-06-04T03:39:24;14.40;51.10
74294;DHT22;64044;59.904;10.738;2023-06-04T03:41:49;14.40;50.90
74294;DHT22;64044;59.904;10.738;2023-06-04T03:44:19;14.40;50.60
74294;DHT22;64044;59.904;10.738;2023-06-04T03:46:45;14.50;50.30
74294;DHT22;64044;59.904;10.738;2023-06-04T03:49:12;14.50;50.20
74294;DHT22;64044;59.904;10.738;2023-06-04T03:51:38;14.50;49.90
74294;DHT22;64044;59.904;10.738;2023-06-04T03:54:04;14.60;49.70
74294;DHT22;64044;59.904;10.738;2023-06-04T03:56:31;14.60;49.60
74294;DHT22;64044;59.904;10.738;2023-06-04T03:58:56;14.60;49.30
74294;DHT22;64044;59.904;10.738;2023-06-04T04:01:23;14.70;49.10
74294;DHT22;64044;59.904;10.738;2023-06-04T04:03:49;14.70;48.90
74294;DHT22;64044;59.904;10.738;2023-06-04T04:06:16;14.70;48.80
74294;DHT22;64044;59.904;10.738;2023-06-04T04:08:42;14.80;48.60
74294;DHT22;64044;59.904;10.738;2023-06-04T04:11:10;14.80;48.30
74294;DHT22;64044;59.904;10.738;2023-06-04T04:13:36;14.80;48.20
74294;DHT22;64044;59.904;10.738;2023-06-04T04:16:01;14.90;48.20
74294;DHT22;64044;59.904;10.738;2023-06-04T04:18:34;14.90;48.00
74294;DHT22;64044;59.904;10.738;2023-06-04T04:21:01;15.00;47.60
74294;DHT22;64044;59.904;10.738;2023-06-04T04:23:27;15.00;47.70
74294;DHT22;64044;59.904;10.738;2023-06-04T04:25:53;15.00;47.50
74294;DHT22;64044;59.904;10.738;2023-06-04T04:28:19;15.00;47.30
74294;DHT22;64044;59.904;10.738;2023-06-04T04:30:46;15.10;47.20
74294;DHT22;64044;59.904;10.738;2023-06-04T04:33:12;15.10;47.00
74294;DHT22;64044;59.904;10.738;2023-06-04T04:35:41;15.10;46.90
74294;DHT22;64044;59.904;10.738;2023-06-04T04:38:10;15.20;46.80
74294;DHT22;64044;59.904;10.738;2023-06-04T04:40:36;15.20;46.70
74294;DHT22;64044;59.904;10.738;2023-06-04T04:43:02;15.30;46.70
74294;DHT22;64044;59.904;10.738;2023-06-04T04:45:29;15.30;46.50
74294;DHT22;64044;59.904;10.738;2023-06-04T04:47:54;15.30;46.20
74294;DHT22;64044;59.904;10.738;2023-06-04T04:50:20;15.40;46.30
74294;DHT22;64044;59.904;10.738;2023-06-04T04:52:46;15.40;46.70
74294;DHT22;64044;59.904;10.738;2023-06-04T04:55:12;15.50;46.00
74294;DHT22;64044;59.904;10.738;2023-06-04T04:57:38;15.50;45.80
74294;DHT22;64044;59.904;10.738;2023-06-04T05:00:05;15.50;45.70
74294;DHT22;64044;59.904;10.738;2023-06-04T05:02:34;15.50;45.70
74294;DHT22;64044;59.904;10.738;2023-06-04T05:05:01;15.60;45.30
74294;DHT22;64044;59.904;10.738;2023-06-04T05:07:26;15.60;45.50
74294;DHT22;64044;59.904;10.738;2023-06-04T05:09:52;15.60;45.30
74294;DHT22;64044;59.904;10.738;2023-06-04T05:12:18;15.70;45.20
74294;DHT22;64044;59.904;10.738;2023-06-04T05:14:45;15.70;45.20
74294;DHT22;64044;59.904;10.738;2023-06-04T05:17:36;15.70;45.10
74294;DHT22;64044;59.904;10.738;2023-06-04T05:20:06;15.70;45.00
74294;DHT22;64044;59.904;10.738;2023-06-04T05:22:31;15.70;45.00
74294;DHT22;64044;59.904;10.738;2023-06-04T05:24:57;15.80;45.00
74294;DHT22;64044;59.904;10.738;2023-06-04T05:27:25;15.80;44.90
74294;DHT22;64044;59.904;10.738;2023-06-04T05:29:51;15.80;44.90
74294;DHT22;64044;59.904;10.738;2023-06-04T05:32:17;15.80;44.90
74294;DHT22;64044;59.904;10.738;2023-06-04T05:34:43;15.80;44.80
74294;DHT22;64044;59.904;10.738;2023-06-04T05:37:09;15.80;44.60
74294;DHT22;64044;59.904;10.738;2023-06-04T05:39:35;15.80;44.70
74294;DHT22;64044;59.904;10.738;2023-06-04T05:42:01;15.90;44.70
74294;DHT22;64044;59.904;10.738;2023-06-04T05:44:27;15.90;44.70
74294;DHT22;64044;59.904;10.738;2023-06-04T05:46:52;15.90;44.60
74294;DHT22;64044;59.904;10.738;2023-06-04T05:49:18;15.90;44.40
74294;DHT22;64044;59.904;10.738;2023-06-04T05:51:45;16.00;44.50
74294;DHT22;64044;59.904;10.738;2023-06-04T05:54:11;16.00;44.30
74294;DHT22;64044;59.904;10.738;2023-06-04T05:56:36;16.00;44.20
74294;DHT22;64044;59.904;10.738;2023-06-04T05:59:02;16.00;44.00
74294;DHT22;64044;59.904;10.738;2023-06-04T06:01:28;16.10;43.90
74294;DHT22;64044;59.904;10.738;2023-06-04T06:03:55;16.10;43.90
74294;DHT22;64044;59.904;10.738;2023-06-04T06:06:20;16.10;43.80
74294;DHT22;64044;59.904;10.738;2023-06-04T06:08:46;16.20;43.70
74294;DHT22;64044;59.904;10.738;2023-06-04T06:11:12;16.20;43.70
74294;DHT22;64044;59.904;10.738;2023-06-04T06:13:38;16.20;43.70
74294;DHT22;64044;59.904;10.738;2023-06-04T06:16:03;16.20;43.60
74294;DHT22;64044;59.904;10.738;2023-06-04T06:18:30;16.30;43.50
74294;DHT22;64044;59.904;10.738;2023-06-04T06:20:56;16.30;43.40
74294;DHT22;64044;59.904;10.738;2023-06-04T06:23:21;16.30;44.00
74294;DHT22;64044;59.904;10.738;2023-06-04T06:25:49;16.30;43.20
74294;DHT22;64044;59.904;10.738;2023-06-04T06:28:20;16.40;43.10
74294;DHT22;64044;59.904;10.738;2023-06-04T06:30:46;16.40;43.00
74294;DHT22;64044;59.904;10.738;2023-06-04T06:33:12;16.50;43.00
74294;DHT22;64044;59.904;10.738;2023-06-04T06:35:38;16.50;42.90
74294;DHT22;64044;59.904;10.738;2023-06-04T06:38:04;16.50;42.90
74294;DHT22;64044;59.904;10.738;2023-06-04T06:40:30;16.50;42.90
74294;DHT22;64044;59.904;10.738;2023-06-04T06:42:58;16.60;42.80
74294;DHT22;64044;59.904;10.738;2023-06-04T06:45:24;16.60;42.60
74294;DHT22;64044;59.904;10.738;2023-06-04T06:47:50;16.70;42.60
74294;DHT22;64044;59.904;10.738;2023-06-04T06:50:15;16.80;42.50
74294;DHT22;64044;59.904;10.738;2023-06-04T06:52:41;16.80;42.40
74294;DHT22;64044;59.904;10.738;2023-06-04T06:55:07;17.00;42.30
74294;DHT22;64044;59.904;10.738;2023-06-04T06:57:33;17.10;42.20
74294;DHT22;64044;59.904;10.738;2023-06-04T06:59:59;17.20;42.00
74294;DHT22;64044;59.904;10.738;2023-06-04T07:02:25;17.30;42.00
74294;DHT22;64044;59.904;10.738;2023-06-04T07:04:50;17.40;41.90
74294;DHT22;64044;59.904;10.738;2023-06-04T07:07:16;17.50;41.20
74294;DHT22;64044;59.904;10.738;2023-06-04T07:09:42;17.60;41.40
74294;DHT22;64044;59.904;10.738;2023-06-04T07:12:08;17.70;41.20
74294;DHT22;64044;59.904;10.738;2023-06-04T07:14:34;17.80;41.00
74294;DHT22;64044;59.904;10.738;2023-06-04T07:17:00;17.80;40.80
74294;DHT22;64044;59.904;10.738;2023-06-04T07:19:26;18.00;40.70
74294;DHT22;64044;59.904;10.738;2023-06-04T07:21:54;18.00;40.40
74294;DHT22;64044;59.904;10.738;2023-06-04T07:24:20;18.10;40.20
74294;DHT22;64044;59.904;10.738;2023-06-04T07:26:45;18.20;40.20
74294;DHT22;64044;59.904;10.738;2023-06-04T07:29:11;18.30;39.90
74294;DHT22;64044;59.904;10.738;2023-06-04T07:31:37;18.30;39.70
74294;DHT22;64044;59.904;10.738;2023-06-04T07:34:02;18.40;39.70
74294;DHT22;64044;59.904;10.738;2023-06-04T07:36:29;18.50;39.50
74294;DHT22;64044;59.904;10.738;2023-06-04T07:38:55;18.60;39.40
74294;DHT22;64044;59.904;10.738;2023-06-04T07:41:21;18.70;39.20
74294;DHT22;64044;59.904;10.738;2023-06-04T07:43:47;18.70;39.20
74294;DHT22;64044;59.904;10.738;2023-06-04T07:46:12;18.70;39.00
74294;DHT22;64044;59.904;10.738;2023-06-04T07:48:38;18.80;38.80
74294;DHT22;64044;59.904;10.738;2023-06-04T07:51:04;18.90;38.70
74294;DHT22;64044;59.904;10.738;2023-06-04T07:53:30;18.90;38.60
74294;DHT22;64044;59.904;10.738;2023-06-04T07:55:56;18.90;38.30
74294;DHT22;64044;59.904;10.738;2023-06-04T07:58:23;19.00;38.20
74294;DHT22;64044;59.904;10.738;2023-06-04T08:00:48;19.00;38.00
74294;DHT22;64044;59.904;10.738;2023-06-04T08:03:14;19.00;38.20
74294;DHT22;64044;59.904;10.738;2023-06-04T08:05:44;19.10;38.10
74294;DHT22;64044;59.904;10.738;2023-06-04T08:08:10;19.10;38.00
74294;DHT22;64044;59.904;10.738;2023-06-04T08:10:35;19.20;37.70
74294;DHT22;64044;59.904;10.738;2023-06-04T08:13:01;19.20;37.70
74294;DHT22;64044;59.904;10.738;2023-06-04T08:15:27;19.30;37.70
74294;DHT22;64044;59.904;10.738;2023-06-04T08:17:52;19.40;37.50
74294;DHT22;64044;59.904;10.738;2023-06-04T08:20:18;19.50;37.10
74294;DHT22;64044;59.904;10.738;2023-06-04T08:22:44;19.50;37.00
74294;DHT22;64044;59.904;10.738;2023-06-04T08:25:10;19.60;37.00
74294;DHT22;64044;59.904;10.738;2023-06-04T08:27:36;19.70;36.70
74294;DHT22;64044;59.904;10.738;2023-06-04T08:30:03;19.80;36.60
74294;DHT22;64044;59.904;10.738;2023-06-04T08:32:29;19.80;36.90
74294;DHT22;64044;59.904;10.738;2023-06-04T08:34:55;19.90;36.50
74294;DHT22;64044;59.904;10.738;2023-06-04T08:37:20;19.90;36.20
74294;DHT22;64044;59.904;10.738;2023-06-04T08:39:46;19.90;36.30
74294;DHT22;64044;59.904;10.738;2023-06-04T08:42:31;20.00;36.30
74294;DHT22;64044;59.904;10.738;2023-06-04T08:45:01;20.10;36.00
74294;DHT22;64044;59.904;10.738;2023-06-04T08:47:29;20.10;36.70
74294;DHT22;64044;59.904;10.738;2023-06-04T08:49:59;20.10;36.20
74294;DHT22;64044;59.904;10.738;2023-06-04T08:52:26;20.10;36.30
74294;DHT22;64044;59.904;10.738;2023-06-04T08:54:54;20.10;36.60
74294;DHT22;64044;59.904;10.738;2023-06-04T08:57:20;20.00;36.60
74294;DHT22;64044;59.904;10.738;2023-06-04T08:59:47;19.90;36.50
74294;DHT22;64044;59.904;10.738;2023-06-04T09:02:14;19.80;37.00
74294;DHT22;64044;59.904;10.738;2023-06-04T09:04:40;19.80;37.00
74294;DHT22;64044;59.904;10.738;2023-06-04T09:07:06;19.70;38.60
74294;DHT22;64044;59.904;10.738;2023-06-04T09:09:38;19.60;37.30
74294;DHT22;64044;59.904;10.738;2023-06-04T09:12:08;19.50;38.20
74294;DHT22;64044;59.904;10.738;2023-06-04T09:14:34;19.40;38.60
74294;DHT22;64044;59.904;10.738;2023-06-04T09:17:00;19.40;38.40
74294;DHT22;64044;59.904;10.738;2023-06-04T09:19:26;19.30;38.50
74294;DHT22;64044;59.904;10.738;2023-06-04T09:21:56;19.30;39.10
74294;DHT22;64044;59.904;10.738;2023-06-04T09:24:45;19.20;40.20
74294;DHT22;64044;59.904;10.738;2023-06-04T09:27:16;19.20;40.70
74294;DHT22;64044;59.904;10.738;2023-06-04T09:29:53;19.20;41.40
74294;DHT22;64044;59.904;10.738;2023-06-04T09:32:26;19.10;41.90
74294;DHT22;64044;59.904;10.738;2023-06-04T09:34:53;19.10;41.30
74294;DHT22;64044;59.904;10.738;2023-06-04T09:37:19;19.10;41.50
74294;DHT22;64044;59.904;10.738;2023-06-04T09:39:57;19.10;40.80
74294;DHT22;64044;59.904;10.738;2023-06-04T09:42:23;19.10;41.80
74294;DHT22;64044;59.904;10.738;2023-06-04T09:44:49;19.10;41.30
74294;DHT22;64044;59.904;10.738;2023-06-04T09:47:15;19.10;40.60
74294;DHT22;64044;59.904;10.738;2023-06-04T09:49:47;19.20;40.20
74294;DHT22;64044;59.904;10.738;2023-06-04T09:52:17;19.20;40.70
74294;DHT22;64044;59.904;10.738;2023-06-04T09:54:43;19.20;40.20
74294;DHT22;64044;59.904;10.738;2023-06-04T09:57:16;19.30;40.60
74294;DHT22;64044;59.904;10.738;2023-06-04T09:59:44;19.40;40.30
74294;DHT22;64044;59.904;10.738;2023-06-04T10:02:12;19.40;40.60
74294;DHT22;64044;59.904;10.738;2023-06-04T10:04:41;19.40;40.70
74294;DHT22;64044;59.904;10.738;2023-06-04T10:07:10;19.50;40.70
74294;DHT22;64044;59.904;10.738;2023-06-04T10:09:39;19.60;40.60
74294;DHT22;64044;59.904;10.738;2023-06-04T10:12:14;19.60;39.40
74294;DHT22;64044;59.904;10.738;2023-06-04T10:15:02;19.70;40.00
74294;DHT22;64044;59.904;10.738;2023-06-04T10:17:31;19.80;39.30
74294;DHT22;64044;59.904;10.738;2023-06-04T10:19:58;19.80;39.70
74294;DHT22;64044;59.904;10.738;2023-06-04T10:22:25;19.90;39.00
74294;DHT22;64044;59.904;10.738;2023-06-04T10:24:51;20.00;38.70
74294;DHT22;64044;59.904;10.738;2023-06-04T10:27:17;20.00;37.70
74294;DHT22;64044;59.904;10.738;2023-06-04T10:29:45;20.10;37.80
74294;DHT22;64044;59.904;10.738;2023-06-04T10:32:11;20.20;38.80
74294;DHT22;64044;59.904;10.738;2023-06-04T10:34:37;20.30;38.30
74294;DHT22;64044;59.904;10.738;2023-06-04T10:37:03;20.30;37.50
74294;DHT22;64044;59.904;10.738;2023-06-04T10:39:31;20.40;38.30
74294;DHT22;64044;59.904;10.738;2023-06-04T10:42:05;20.50;38.50
74294;DHT22;64044;59.904;10.738;2023-06-04T10:44:43;20.60;36.70
74294;DHT22;64044;59.904;10.738;2023-06-04T10:47:18;20.70;37.50
74294;DHT22;64044;59.904;10.738;2023-06-04T10:49:44;20.80;37.40
74294;DHT22;64044;59.904;10.738;2023-06-04T10:52:10;20.90;36.80
74294;DHT22;64044;59.904;10.738;2023-06-04T10:54:36;21.00;36.10
74294;DHT22;64044;59.904;10.738;2023-06-04T10:57:11;21.10;36.90
74294;DHT22;64044;59.904;10.738;2023-06-04T10:59:37;21.20;36.80
74294;DHT22;64044;59.904;10.738;2023-06-04T11:02:09;21.30;36.50
74294;DHT22;64044;59.904;10.738;2023-06-04T11:04:36;21.40;35.50
74294;DHT22;64044;59.904;10.738;2023-06-04T11:07:07;21.40;35.00
74294;DHT22;64044;59.904;10.738;2023-06-04T11:09:48;21.60;35.10
74294;DHT22;64044;59.904;10.738;2023-06-04T11:12:14;21.70;34.60
74294;DHT22;64044;59.904;10.738;2023-06-04T11:14:40;21.80;35.30
74294;DHT22;64044;59.904;10.738;2023-06-04T11:17:13;21.90;35.00
74294;DHT22;64044;59.904;10.738;2023-06-04T11:19:39;22.00;33.70
74294;DHT22;64044;59.904;10.738;2023-06-04T11:22:05;22.10;33.40
74294;DHT22;64044;59.904;10.738;2023-06-04T11:24:32;22.30;33.50
74294;DHT22;64044;59.904;10.738;2023-06-04T11:26:58;22.40;33.80
74294;DHT22;64044;59.904;10.738;2023-06-04T11:29:28;22.50;33.90
74294;DHT22;64044;59.904;10.738;2023-06-04T11:31:54;22.60;33.90
74294;DHT22;64044;59.904;10.738;2023-06-04T11:34:27;22.80;33.90
74294;DHT22;64044;59.904;10.738;2023-06-04T11:36:53;23.00;32.60
74294;DHT22;64044;59.904;10.738;2023-06-04T11:39:22;23.20;32.30
74294;DHT22;64044;59.904;10.738;2023-06-04T11:41:50;23.50;32.40
74294;DHT22;64044;59.904;10.738;2023-06-04T11:44:19;23.70;32.20
74294;DHT22;64044;59.904;10.738;2023-06-04T11:46:45;24.00;31.80
74294;DHT22;64044;59.904;10.738;2023-06-04T11:49:17;24.30;31.90
74294;DHT22;64044;59.904;10.738;2023-06-04T11:51:51;24.60;30.50
74294;DHT22;64044;59.904;10.738;2023-06-04T11:54:23;24.90;30.20
74294;DHT22;64044;59.904;10.738;2023-06-04T11:56:53;25.20;30.00
74294;DHT22;64044;59.904;10.738;2023-06-04T11:59:19;25.60;29.80
74294;DHT22;64044;59.904;10.738;2023-06-04T12:01:46;25.90;29.40
74294;DHT22;64044;59.904;10.738;2023-06-04T12:04:13;26.30;29.20
74294;DHT22;64044;59.904;10.738;2023-06-04T12:06:56;26.70;28.90
74294;DHT22;64044;59.904;10.738;2023-06-04T12:09:28;27.10;27.70
74294;DHT22;64044;59.904;10.738;2023-06-04T12:12:05;27.60;27.90
74294;DHT22;64044;59.904;10.738;2023-06-04T12:14:31;28.10;26.80
74294;DHT22;64044;59.904;10.738;2023-06-04T12:16:59;28.50;27.70
74294;DHT22;64044;59.904;10.738;2023-06-04T12:19:25;29.00;27.10
74294;DHT22;64044;59.904;10.738;2023-06-04T12:22:05;29.40;26.80
74294;DHT22;64044;59.904;10.738;2023-06-04T12:24:46;29.90;25.20
74294;DHT22;64044;59.904;10.738;2023-06-04T12:27:13;30.30;25.50
74294;DHT22;64044;59.904;10.738;2023-06-04T12:29:38;30.80;26.30
74294;DHT22;64044;59.904;10.738;2023-06-04T12:32:06;31.20;25.80
74294;DHT22;64044;59.904;10.738;2023-06-04T12:34:37;31.60;25.20
74294;DHT22;64044;59.904;10.738;2023-06-04T12:37:03;32.00;25.20
74294;DHT22;64044;59.904;10.738;2023-06-04T12:39:31;32.40;24.60
74294;DHT22;64044;59.904;10.738;2023-06-04T12:41:57;32.70;24.00
74294;DHT22;64044;59.904;10.738;2023-06-04T12:44:23;33.10;23.30
74294;DHT22;64044;59.904;10.738;2023-06-04T12:46:49;33.40;23.40
74294;DHT22;64044;59.904;10.738;2023-06-04T12:49:15;33.80;22.80
74294;DHT22;64044;59.904;10.738;2023-06-04T12:51:41;34.10;22.60
74294;DHT22;64044;59.904;10.738;2023-06-04T12:54:06;34.40;22.10
74294;DHT22;64044;59.904;10.738;2023-06-04T12:56:58;34.70;22.10
74294;DHT22;64044;59.904;10.738;2023-06-04T12:59:25;35.00;20.70
74294;DHT22;64044;59.904;10.738;2023-06-04T13:01:51;35.30;21.70
74294;DHT22;64044;59.904;10.738;2023-06-04T13:04:17;35.60;21.40
74294;DHT22;64044;59.904;10.738;2023-06-04T13:06:43;35.80;20.80
74294;DHT22;64044;59.904;10.738;2023-06-04T13:09:11;36.00;20.40
74294;DHT22;64044;59.904;10.738;2023-06-04T13:11:41;36.10;19.90
74294;DHT22;64044;59.904;10.738;2023-06-04T13:16:40;36.50;20.40
74294;DHT22;64044;59.904;10.738;2023-06-04T13:19:07;36.70;19.20
74294;DHT22;64044;59.904;10.738;2023-06-04T13:21:33;36.80;19.30
74294;DHT22;64044;59.904;10.738;2023-06-04T13:23:59;37.00;18.90
74294;DHT22;64044;59.904;10.738;2023-06-04T13:26:25;37.10;18.60
74294;DHT22;64044;59.904;10.738;2023-06-04T13:28:51;37.20;18.80
74294;DHT22;64044;59.904;10.738;2023-06-04T13:31:17;37.40;19.20
74294;DHT22;64044;59.904;10.738;2023-06-04T13:33:43;37.50;19.00
74294;DHT22;64044;59.904;10.738;2023-06-04T13:36:09;37.70;18.90
74294;DHT22;64044;59.904;10.738;2023-06-04T13:38:35;37.80;18.40
74294;DHT22;64044;59.904;10.738;2023-06-04T13:41:00;37.90;18.50
74294;DHT22;64044;59.904;10.738;2023-06-04T13:43:26;38.00;18.50
74294;DHT22;64044;59.904;10.738;2023-06-04T13:45:52;38.10;18.40
74294;DHT22;64044;59.904;10.738;2023-06-04T13:48:18;38.20;18.60
74294;DHT22;64044;59.904;10.738;2023-06-04T13:50:44;38.20;18.70
74294;DHT22;64044;59.904;10.738;2023-06-04T13:53:10;38.30;18.40
74294;DHT22;64044;59.904;10.738;2023-06-04T13:55:38;38.40;18.40
74294;DHT22;64044;59.904;10.738;2023-06-04T13:58:04;38.40;17.80
74294;DHT22;64044;59.904;10.738;2023-06-04T14:00:30;38.50;18.10
74294;DHT22;64044;59.904;10.738;2023-06-04T14:02:57;38.60;17.70
74294;DHT22;64044;59.904;10.738;2023-06-04T14:05:24;38.60;17.50
74294;DHT22;64044;59.904;10.738;2023-06-04T14:07:50;38.70;16.90
74294;DHT22;64044;59.904;10.738;2023-06-04T14:10:16;38.80;16.70
74294;DHT22;64044;59.904;10.738;2023-06-04T14:12:42;38.80;16.50
74294;DHT22;64044;59.904;10.738;2023-06-04T14:15:09;38.90;16.30
74294;DHT22;64044;59.904;10.738;2023-06-04T14:17:36;38.90;16.10
74294;DHT22;64044;59.904;10.738;2023-06-04T14:20:03;39.00;16.00
74294;DHT22;64044;59.904;10.738;2023-06-04T14:22:36;39.10;15.70
74294;DHT22;64044;59.904;10.738;2023-06-04T14:25:04;39.10;15.10
74294;DHT22;64044;59.904;10.738;2023-06-04T14:27:30;39.20;15.40
74294;DHT22;64044;59.904;10.738;2023-06-04T14:29:56;39.30;15.40
74294;DHT22;64044;59.904;10.738;2023-06-04T14:32:22;39.40;15.30
74294;DHT22;64044;59.904;10.738;2023-06-04T14:34:47;39.50;15.20
74294;DHT22;64044;59.904;10.738;2023-06-04T14:37:13;39.60;15.00
74294;DHT22;64044;59.904;10.738;2023-06-04T14:39:39;39.70;15.00
74294;DHT22;64044;59.904;10.738;2023-06-04T14:42:04;39.80;15.00
74294;DHT22;64044;59.904;10.738;2023-06-04T14:44:30;39.90;14.80
74294;DHT22;64044;59.904;10.738;2023-06-04T14:46:56;40.00;14.80
74294;DHT22;64044;59.904;10.738;2023-06-04T14:49:22;40.20;14.80
74294;DHT22;64044;59.904;10.738;2023-06-04T14:51:48;40.30;14.70
74294;DHT22;64044;59.904;10.738;2023-06-04T14:54:13;40.40;14.50
74294;DHT22;64044;59.904;10.738;2023-06-04T14:56:39;40.50;14.40
74294;DHT22;64044;59.904;10.738;2023-06-04T14:59:09;40.60;14.30
74294;DHT22;64044;59.904;10.738;2023-06-04T15:01:38;40.70;14.20
74294;DHT22;64044;59.904;10.738;2023-06-04T15:04:04;40.80;14.10
74294;DHT22;64044;59.904;10.738;2023-06-04T15:06:30;40.90;14.10
74294;DHT22;64044;59.904;10.738;2023-06-04T15:08:56;41.00;14.00
74294;DHT22;64044;59.904;10.738;2023-06-04T15:11:21;41.00;14.00
74294;DHT22;64044;59.904;10.738;2023-06-04T15:13:47;41.10;13.90
74294;DHT22;64044;59.904;10.738;2023-06-04T15:16:13;41.20;14.90
74294;DHT22;64044;59.904;10.738;2023-06-04T15:18:39;41.20;14.60